Impacts METAR Board INFO
IDs:

KPDX - Portland Intl Arpt, OR, US

Updated at: 1536 UTC 18 Jan 2018
Potential Impact None Slight Moderate High
Time18/03Z 18/04Z 18/05Z 18/06Z 18/07Z 18/08Z 18/09Z 18/10Z 18/11Z 18/12Z 18/13Z 18/14Z 18/15Z
VIS5 4 10 10 10 10 10 10 7 10 10 10 10
CIG55 13 26 50 60 100 180 180 50 80 85 100 250
CoverOVCOVCOVCOVCOVCOVCOVCOVCOVCOVCOVCOVCBKN
FltCatMVFRMVFRMVFRVFRVFRVFRVFRVFRVFRVFRVFRVFRVFR
WXRA BRRA BR-RA-----------RA-DZ------
WDir110140110130160170180180200190160170170
WSpd15 7 8 5 7 10 9 6 8 12 6 11 7
WGst23 -- -- -- -- -- -- -- -- -- -- -- --
Raw hourly METARs
KPDX 180253Z 11015G23KT 5SM RA BR FEW020 BKN055 OVC080 08/08 A2984 RMK AO2 SLP105 P0014 60028 T00780078 50006
KPDX 180353Z 14007KT 4SM RA BR SCT008 BKN013 OVC025 08/08 A2986 RMK AO2 SLP112 P0011 T00830083
KPDX 180453Z 11008KT 10SM -RA SCT016 BKN026 OVC039 08/08 A2986 RMK AO2 SLP109 P0012 T00830083
KPDX 180553Z 13005KT 10SM SCT039 BKN050 OVC085 10/09 A2986 RMK AO2 RAE21 SLP112 P0000 60051 T01000089 10100 20078 51007
KPDX 180653Z 16007KT 10SM FEW020 BKN060 OVC085 11/09 A2987 RMK AO2 SLP115 T01110089
KPDX 180753Z 17010KT 10SM FEW015 SCT060 OVC100 11/09 A2988 RMK AO2 SLP119 T01110089 401110072
KPDX 180853Z 18009KT 10SM SCT020 OVC180 11/08 A2986 RMK AO2 SLP111 T01060083 58001
KPDX 180953Z 18006KT 10SM SCT046 SCT095 OVC180 11/08 A2985 RMK AO2 RAB23E41 SLP107 P0001 T01060083
KPDX 181053Z 20008KT 7SM -RA FEW041 OVC050 11/08 A2986 RMK AO2 RAB34 SLP112 P0001 T01060078
KPDX 181153Z 19012KT 10SM -DZ OVC080 10/07 A2986 RMK AO2 RAE31DZB49 SLP110 P0002 60004 70056 T01000072 10111 20100 56001
KPDX 181253Z 16006KT 10SM SCT065 OVC085 09/07 A2987 RMK AO2 DZE49 SLP114 P0000 T00890067
KPDX 181353Z 17011KT 10SM SCT075 OVC100 09/07 A2987 RMK AO2 SLP113 T00890067
KPDX 181453Z 17007KT 10SM FEW050 FEW070 SCT110 BKN250 09/06 A2988 RMK AO2 SLP119 60000 T00890061 53008